This is the latest recevied weather packets stored in our database for station/object K3RTA-2. If no packets are shown the sender has not sent any weather packets the latest 10 day(s).
| Time | Temp. | Humidity | Pressure | Rain* | Wind** | Luminosity | Snow |
|---|---|---|---|---|---|---|---|
| 1777732804 | 12.22° C | 70% | 1013 hPa | 0 mm | - | - | - |
| 1777732205 | 12.22° C | 71% | 1012.8 hPa | 0 mm | - | - | - |
| 1777728304 | 12.22° C | 76% | 1013 hPa | 0 mm | - | - | - |
| 1777725304 | 11.11° C | 81% | 1013.1 hPa | 0 mm | - | - | - |
| 1777626605 | 7.22° C | 83% | 1013.9 hPa | 0 mm | - | - | - |
| 1777624205 | 7.22° C | 83% | 1013.8 hPa | 0 mm | - | - | - |
| 1777622404 | 7.78° C | 82% | 1013.6 hPa | 0 mm | - | - | - |
| 1777620904 | 7.78° C | 81% | 1013.4 hPa | 0 mm | - | - | - |
| 1777620604 | 7.78° C | 81% | 1013.3 hPa | 0 mm | - | - | - |
| 1777615804 | 8.89° C | 76% | 1013 hPa | 0 mm | - | - | - |
| 1777611005 | 10° C | 73% | 1012.8 hPa | 0 mm | - | - | - |
| 1777610405 | 10.56° C | 73% | 1012.9 hPa | 0 mm | - | - | - |
| 1777609504 | 11.11° C | 71% | 1012.8 hPa | 0 mm | - | - | - |
| 1777609204 | 11.11° C | 71% | 1012.7 hPa | 0 mm | - | - | - |
| 1777606805 | 12.22° C | 68% | 1012.6 hPa | 0 mm | - | - | - |
| 1777606206 | 12.78° C | 68% | 1012.6 hPa | 0 mm | - | - | - |
| 1777605904 | 12.78° C | 68% | 1012.6 hPa | 0 mm | - | - | - |
| 1777605605 | 12.78° C | 68% | 1012.5 hPa | 0 mm | - | - | - |
| 1777604404 | 13.33° C | 69% | 1012.3 hPa | 0 mm | - | - | - |
| 1777604103 | 13.33° C | 69% | 1012.2 hPa | 0 mm | - | - | - |
| 1777601104 | 14.44° C | 67% | 1011.6 hPa | 0 mm | - | - | - |
| 1777598405 | 15.56° C | 63% | 1010.5 hPa | 0 mm | - | - | - |
| 1777598105 | 16.11° C | 62% | 1010.4 hPa | 0 mm | - | - | - |
| 1777597505 | 16.11° C | 59% | 1010 hPa | 0 mm | - | - | - |
| 1777593604 | 16.11° C | 57% | 1008.9 hPa | 0 mm | - | - | - |
* Rain latest hour (hover to see other rain measurements)
** Current wind speed in m/s (hover to see current wind gust speed)